createdAt,value
2017-11-12T00:00:19.350Z,8.83
2017-11-12T00:02:46.909Z,11.40
2017-11-12T00:05:15.183Z,13.23
2017-11-12T00:07:42.702Z,14.53
2017-11-12T00:10:10.205Z,10.10
2017-11-12T00:12:38.047Z,7.37
2017-11-12T00:15:05.558Z,9.20
2017-11-12T00:17:33.938Z,10.63
2017-11-12T00:20:01.446Z,8.80
2017-11-12T00:22:29.721Z,8.70
2017-11-12T00:24:57.230Z,9.47
2017-11-12T00:27:25.530Z,11.40
2017-11-12T00:29:53.783Z,9.73
2017-11-12T00:32:21.286Z,9.57
2017-11-12T00:34:48.825Z,8.75
2017-11-12T00:37:16.373Z,8.63
2017-11-12T00:39:44.652Z,14.17
2017-11-12T00:42:12.934Z,7.63
2017-11-12T00:44:41.317Z,11.27
2017-11-12T00:47:08.795Z,12.63
2017-11-12T00:49:36.341Z,12.40
2017-11-12T00:52:04.005Z,10.00
2017-11-12T00:54:31.662Z,13.00
2017-11-12T00:56:59.313Z,10.53
2017-11-12T00:59:26.804Z,9.70
2017-11-12T01:01:54.333Z,10.83
2017-11-12T01:04:21.889Z,13.73
2017-11-12T01:06:50.147Z,9.03
2017-11-12T01:09:17.683Z,9.70
2017-11-12T01:11:46.015Z,7.87
2017-11-12T01:14:13.533Z,10.52
2017-11-12T01:16:41.148Z,9.23
2017-11-12T01:19:08.638Z,17.03
2017-11-12T01:21:36.146Z,9.60
2017-11-12T01:24:03.624Z,10.20
2017-11-12T01:26:31.119Z,12.10
2017-11-12T01:28:58.733Z,8.77
2017-11-12T01:31:26.238Z,11.33
2017-11-12T01:33:53.749Z,10.68
2017-11-12T01:36:21.246Z,19.58
2017-11-12T01:38:48.765Z,18.07
2017-11-12T01:41:16.410Z,19.53
2017-11-12T01:43:44.678Z,7.60
2017-11-12T01:46:12.155Z,7.90
2017-11-12T01:48:40.425Z,9.47
2017-11-12T01:51:08.686Z,9.70
2017-11-12T01:53:36.173Z,8.80
2017-11-12T01:56:03.674Z,11.20
2017-11-12T01:58:31.384Z,9.05
2017-11-12T02:00:59.651Z,12.20
2017-11-12T02:03:27.909Z,9.63
2017-11-12T02:05:55.401Z,14.35
2017-11-12T02:08:23.857Z,18.63
2017-11-12T02:10:51.370Z,9.10
2017-11-12T02:13:18.888Z,10.37
2017-11-12T02:15:46.571Z,12.80
2017-11-12T02:18:14.066Z,10.15
2017-11-12T02:20:41.572Z,12.98
2017-11-12T02:23:09.074Z,8.32
2017-11-12T02:25:36.691Z,7.22
2017-11-12T02:28:04.179Z,11.40
2017-11-12T02:30:31.686Z,11.43
2017-11-12T02:32:59.962Z,13.65
2017-11-12T02:35:27.459Z,16.42
2017-11-12T02:37:55.314Z,10.88
2017-11-12T02:40:22.901Z,10.43
2017-11-12T02:42:50.664Z,10.43
2017-11-12T02:45:18.293Z,11.75
2017-11-12T02:47:45.796Z,12.85
2017-11-12T02:50:13.304Z,8.30
2017-11-12T02:52:41.567Z,8.23
2017-11-12T02:55:09.080Z,12.23
2017-11-12T02:57:36.648Z,14.57
2017-11-12T03:00:04.142Z,8.93
2017-11-12T03:02:31.648Z,9.15
2017-11-12T03:04:59.181Z,8.33
2017-11-12T03:07:26.682Z,12.93
2017-11-12T03:09:54.209Z,11.93
2017-11-12T03:12:21.736Z,10.20
2017-11-12T03:14:49.332Z,7.90
2017-11-12T03:17:16.818Z,8.03
2017-11-12T03:19:44.383Z,13.98
2017-11-12T03:22:11.881Z,10.50
2017-11-12T03:24:39.550Z,10.13
2017-11-12T03:27:07.060Z,16.77
2017-11-12T03:29:34.586Z,12.57
2017-11-12T03:32:02.095Z,8.02
2017-11-12T03:34:29.803Z,12.93
2017-11-12T03:36:57.345Z,11.90
2017-11-12T03:39:25.727Z,15.65
2017-11-12T03:41:53.236Z,12.85
2017-11-12T03:44:20.838Z,14.05
2017-11-12T03:46:49.421Z,8.07
2017-11-12T03:49:17.123Z,10.27
2017-11-12T03:51:46.097Z,12.65
2017-11-12T03:54:14.373Z,12.68
2017-11-12T03:56:42.650Z,11.02
2017-11-12T03:59:10.324Z,12.88
2017-11-12T04:01:38.613Z,10.50
2017-11-12T04:04:06.123Z,13.45
2017-11-12T04:06:33.684Z,17.70
2017-11-12T04:09:01.184Z,15.23
2017-11-12T04:11:28.679Z,20.15
2017-11-12T04:13:56.399Z,13.15
2017-11-12T04:16:24.060Z,12.40
2017-11-12T04:18:51.722Z,16.00
2017-11-12T04:21:19.221Z,14.98
2017-11-12T04:23:46.724Z,14.68
2017-11-12T04:26:14.997Z,17.80
2017-11-12T04:28:43.418Z,14.15
2017-11-12T04:31:10.923Z,13.90
2017-11-12T04:33:38.461Z,16.50
2017-11-12T04:36:05.964Z,15.77
2017-11-12T04:38:34.225Z,15.70
2017-11-12T04:41:01.811Z,12.63
2017-11-12T04:43:30.082Z,14.50
2017-11-12T04:45:57.589Z,15.82
2017-11-12T04:48:25.098Z,18.27
2017-11-12T04:50:52.970Z,13.43
2017-11-12T04:53:20.483Z,16.73
2017-11-12T04:55:47.983Z,21.87
2017-11-12T04:58:16.469Z,16.92
2017-11-12T05:00:44.721Z,17.48
2017-11-12T05:03:12.332Z,19.87
2017-11-12T05:05:39.835Z,17.73
2017-11-12T05:08:07.335Z,18.92
2017-11-12T05:10:34.832Z,18.08
2017-11-12T05:13:02.334Z,14.40
2017-11-12T05:15:30.752Z,19.95
2017-11-12T05:17:58.245Z,16.80
2017-11-12T05:20:25.726Z,16.85
2017-11-12T05:22:53.402Z,16.40
2017-11-12T05:25:20.895Z,17.48
2017-11-12T05:27:48.485Z,14.32
2017-11-12T05:30:16.002Z,20.00
2017-11-12T05:32:43.533Z,14.43
2017-11-12T05:35:11.082Z,23.67
2017-11-12T05:37:39.353Z,17.55
2017-11-12T05:40:06.871Z,24.37
2017-11-12T05:42:34.411Z,15.70
2017-11-12T05:45:01.972Z,18.92
2017-11-12T05:47:29.445Z,20.95
2017-11-12T05:49:56.946Z,14.48
2017-11-12T05:52:24.553Z,17.83
2017-11-12T05:54:52.070Z,22.98
2017-11-12T05:57:19.737Z,13.88
2017-11-12T05:59:47.985Z,19.25
2017-11-12T06:02:15.510Z,18.65
2017-11-12T06:04:43.073Z,14.32
2017-11-12T06:07:10.929Z,15.07
2017-11-12T06:09:38.409Z,18.75
2017-11-12T06:12:05.919Z,24.20
2017-11-12T06:14:34.225Z,17.73
2017-11-12T06:17:01.786Z,17.75
2017-11-12T06:19:29.298Z,22.33
2017-11-12T06:21:56.805Z,15.25
2017-11-12T06:24:24.332Z,19.73
2017-11-12T06:26:51.835Z,23.90
2017-11-12T06:29:19.346Z,15.02
2017-11-12T06:31:47.627Z,18.77
2017-11-12T06:34:15.891Z,14.73
2017-11-12T06:36:43.390Z,19.73
2017-11-12T06:39:10.959Z,18.67
2017-11-12T06:41:38.491Z,19.55
2017-11-12T06:44:06.758Z,15.63
2017-11-12T06:46:35.015Z,18.90
2017-11-12T06:49:02.501Z,20.43
2017-11-12T06:51:30.788Z,17.50
2017-11-12T06:53:58.281Z,23.20
2017-11-12T06:56:25.957Z,23.77
2017-11-12T06:58:53.448Z,15.33
2017-11-12T07:01:21.851Z,14.87
2017-11-12T07:03:49.513Z,13.75
2017-11-12T07:06:17.179Z,16.67
2017-11-12T07:08:44.806Z,12.25
2017-11-12T07:11:12.303Z,15.05
2017-11-12T07:13:39.826Z,14.07
2017-11-12T07:16:07.314Z,18.00
2017-11-12T07:18:34.869Z,21.37
2017-11-12T07:21:02.741Z,27.63
2017-11-12T07:23:30.283Z,18.70
2017-11-12T07:25:57.801Z,18.42
2017-11-12T07:28:25.318Z,21.50
2017-11-12T07:30:52.793Z,23.23
2017-11-12T07:33:20.326Z,15.35
2017-11-12T07:35:47.884Z,17.57
2017-11-12T07:38:15.371Z,17.00
2017-11-12T07:40:42.862Z,17.77
2017-11-12T07:43:10.370Z,16.47
2017-11-12T07:45:37.915Z,13.77
2017-11-12T07:48:05.404Z,15.73
2017-11-12T07:50:32.935Z,24.70
2017-11-12T07:53:01.199Z,24.47
2017-11-12T07:55:28.708Z,21.67
2017-11-12T07:57:56.279Z,17.90
2017-11-12T08:00:23.750Z,20.10
2017-11-12T08:02:51.255Z,18.17
2017-11-12T08:05:19.501Z,18.03
2017-11-12T08:07:46.997Z,22.20
2017-11-12T08:10:15.273Z,17.93
2017-11-12T08:12:43.543Z,21.40
2017-11-12T08:15:11.043Z,16.90
2017-11-12T08:17:38.536Z,16.07
2017-11-12T08:20:06.024Z,18.73
2017-11-12T08:22:33.688Z,13.20
2017-11-12T08:25:01.243Z,15.20
2017-11-12T08:27:29.497Z,16.07
2017-11-12T08:29:56.982Z,24.00
2017-11-12T08:32:24.458Z,20.60
2017-11-12T08:34:51.965Z,10.33
2017-11-12T08:37:20.411Z,15.40
2017-11-12T08:39:47.950Z,16.97
2017-11-12T08:42:15.453Z,18.57
2017-11-12T08:44:42.951Z,11.30
2017-11-12T08:47:10.446Z,10.20
2017-11-12T08:49:38.069Z,15.17
2017-11-12T08:52:05.566Z,14.10
2017-11-12T08:54:33.066Z,12.57
2017-11-12T08:57:00.568Z,17.70
2017-11-12T08:59:28.070Z,12.93
2017-11-12T09:01:55.559Z,14.73
2017-11-12T09:04:23.058Z,12.60
2017-11-12T09:06:50.546Z,16.33
2017-11-12T09:09:18.050Z,12.30
2017-11-12T09:11:45.575Z,16.90
2017-11-12T09:14:13.085Z,18.40
2017-11-12T09:16:40.573Z,15.90
2017-11-12T09:19:08.078Z,20.07
2017-11-12T09:21:35.644Z,14.70
2017-11-12T09:24:03.609Z,24.30
2017-11-12T09:26:31.110Z,13.40
2017-11-12T09:28:59.303Z,16.37
2017-11-12T09:31:27.005Z,9.70
2017-11-12T09:33:54.490Z,9.37
2017-11-12T09:36:21.979Z,20.50
2017-11-12T09:38:49.456Z,10.77
2017-11-12T09:41:16.969Z,12.57
2017-11-12T09:43:44.756Z,14.10
2017-11-12T09:46:12.251Z,15.43
2017-11-12T09:48:40.530Z,32.30
2017-11-12T09:51:08.910Z,16.83
2017-11-12T09:53:36.402Z,16.13
2017-11-12T09:56:03.919Z,15.57
2017-11-12T09:58:32.210Z,17.73
2017-11-12T10:00:59.718Z,8.60
2017-11-12T10:03:27.210Z,9.63
2017-11-12T10:05:55.477Z,17.10
2017-11-12T10:08:23.045Z,19.13
2017-11-12T10:10:50.718Z,10.20
2017-11-12T10:13:18.218Z,9.63
2017-11-12T10:15:45.750Z,14.67
2017-11-12T10:18:13.397Z,10.10
2017-11-12T10:20:40.896Z,12.10
2017-11-12T10:23:08.378Z,8.50
2017-11-12T10:25:36.009Z,15.00
2017-11-12T10:28:03.512Z,10.50
2017-11-12T10:30:31.230Z,8.73
2017-11-12T10:32:58.727Z,16.13
2017-11-12T10:35:27.864Z,13.53
2017-11-12T10:37:55.574Z,17.13
2017-11-12T10:40:23.193Z,11.70
2017-11-12T10:42:50.878Z,15.43
2017-11-12T10:45:18.541Z,6.23
2017-11-12T10:47:46.134Z,10.70
2017-11-12T10:50:15.230Z,9.67
2017-11-12T10:52:42.819Z,15.00
2017-11-12T10:55:11.111Z,7.43
2017-11-12T10:57:38.610Z,5.20
2017-11-12T11:00:06.107Z,8.93
2017-11-12T11:02:33.794Z,8.03
2017-11-12T11:05:01.434Z,10.80
2017-11-12T11:07:29.711Z,4.43
2017-11-12T11:09:57.992Z,7.80
2017-11-12T11:12:25.485Z,9.30
2017-11-12T11:14:53.044Z,5.63
2017-11-12T11:17:20.612Z,15.73
2017-11-12T11:19:48.145Z,10.87
2017-11-12T11:22:15.633Z,10.40
2017-11-12T11:24:43.123Z,7.00
2017-11-12T11:27:10.721Z,6.23
2017-11-12T11:29:38.219Z,10.07
2017-11-12T11:32:05.829Z,7.30
2017-11-12T11:34:33.315Z,5.43
2017-11-12T11:37:00.850Z,5.70
2017-11-12T11:39:29.222Z,6.57
2017-11-12T11:41:56.719Z,12.30
2017-11-12T11:44:24.194Z,11.43
2017-11-12T11:46:51.808Z,13.50
2017-11-12T11:49:20.075Z,10.20
2017-11-12T11:51:47.600Z,10.80
2017-11-12T11:54:15.081Z,7.87
2017-11-12T11:56:42.565Z,9.23
2017-11-12T11:59:10.072Z,15.63
2017-11-12T12:01:37.679Z,15.50
2017-11-12T12:04:05.350Z,7.60
2017-11-12T12:06:32.878Z,6.97
2017-11-12T12:09:00.384Z,4.90
2017-11-12T12:11:27.897Z,8.30
2017-11-12T12:13:55.417Z,12.60
2017-11-12T12:16:23.065Z,8.77
2017-11-12T12:18:50.577Z,16.33
2017-11-12T12:21:18.078Z,8.80
2017-11-12T12:23:45.598Z,9.33
2017-11-12T12:26:13.080Z,9.63
2017-11-12T12:28:40.695Z,9.63
2017-11-12T12:31:08.286Z,7.40
2017-11-12T12:33:35.876Z,6.67
2017-11-12T12:36:03.818Z,6.83
2017-11-12T12:38:31.318Z,7.80
2017-11-12T12:40:58.834Z,9.17
2017-11-12T12:43:26.320Z,8.63
2017-11-12T12:45:53.817Z,8.03
2017-11-12T12:48:21.407Z,11.97
2017-11-12T12:50:48.926Z,10.90
2017-11-12T12:53:16.434Z,7.93
2017-11-12T12:55:43.935Z,4.93
2017-11-12T12:58:11.413Z,6.47
2017-11-12T13:00:39.224Z,10.10
2017-11-12T13:03:06.775Z,16.40
2017-11-12T13:05:35.151Z,17.17
2017-11-12T13:08:02.665Z,13.53
2017-11-12T13:10:30.274Z,14.73
2017-11-12T13:12:58.565Z,8.50
2017-11-12T13:15:26.052Z,11.30
2017-11-12T13:17:53.525Z,10.90
2017-11-12T13:20:21.027Z,13.98
2017-11-12T13:22:48.534Z,13.70
2017-11-12T13:25:16.138Z,27.60
2017-11-12T13:27:43.804Z,15.00
2017-11-12T13:30:11.492Z,16.17
2017-11-12T13:32:38.989Z,18.23
2017-11-12T13:35:06.487Z,23.00
2017-11-12T13:37:34.745Z,12.33
2017-11-12T13:40:02.218Z,15.60
2017-11-12T13:42:30.498Z,25.60
2017-11-12T13:44:58.796Z,18.43
2017-11-12T13:47:26.280Z,13.90
2017-11-12T13:49:53.789Z,22.37
2017-11-12T13:52:21.447Z,13.33
2017-11-12T13:54:48.947Z,15.70
2017-11-12T13:57:16.459Z,10.73
2017-11-12T13:59:44.720Z,18.47
2017-11-12T14:02:12.211Z,10.30
2017-11-12T14:04:40.475Z,12.13
2017-11-12T14:07:08.886Z,15.10
2017-11-12T14:09:36.533Z,16.63
2017-11-12T14:12:04.170Z,16.37
2017-11-12T14:14:31.677Z,17.70
2017-11-12T14:16:59.164Z,17.03
2017-11-12T14:21:59.372Z,15.60
2017-11-12T14:24:26.930Z,13.20
2017-11-12T14:26:54.405Z,14.03
2017-11-12T14:29:21.901Z,21.70
2017-11-12T14:31:49.410Z,26.20
2017-11-12T14:34:16.894Z,19.43
2017-11-12T14:36:44.969Z,13.20
2017-11-12T14:39:12.512Z,21.57
2017-11-12T14:41:40.004Z,19.47
2017-11-12T14:44:07.534Z,23.13
2017-11-12T14:46:35.166Z,18.53
2017-11-12T14:49:02.678Z,23.57
2017-11-12T14:51:30.281Z,9.07
2017-11-12T14:53:57.796Z,9.70
2017-11-12T14:56:25.325Z,14.40
2017-11-12T14:58:53.045Z,19.90
2017-11-12T15:01:20.533Z,15.10
2017-11-12T15:03:49.262Z,20.80
2017-11-12T15:06:16.735Z,22.30
2017-11-12T15:08:44.301Z,11.03
2017-11-12T15:11:11.890Z,10.10
2017-11-12T15:13:39.569Z,16.80
2017-11-12T15:16:07.091Z,12.10
2017-11-12T15:18:34.582Z,12.33
2017-11-12T15:21:02.119Z,16.40
2017-11-12T15:23:29.633Z,15.60
2017-11-12T15:25:57.155Z,20.83
2017-11-12T15:28:24.669Z,19.30
2017-11-12T15:30:52.163Z,16.60
2017-11-12T15:33:19.732Z,17.90
2017-11-12T15:35:47.249Z,30.73
2017-11-12T15:38:14.822Z,19.37
2017-11-12T15:40:42.501Z,22.30
2017-11-12T15:43:10.359Z,22.43
2017-11-12T15:45:37.931Z,16.47
2017-11-12T15:48:05.425Z,17.87
2017-11-12T15:50:32.915Z,20.83
2017-11-12T15:53:00.434Z,12.53
2017-11-12T15:55:28.064Z,12.83
2017-11-12T15:57:55.726Z,49.70
2017-11-12T16:00:23.229Z,16.03
2017-11-12T16:02:50.765Z,16.30
2017-11-12T16:05:18.268Z,11.43
2017-11-12T16:07:45.863Z,11.63
2017-11-12T16:10:14.241Z,12.83
2017-11-12T16:12:42.042Z,12.13
2017-11-12T16:15:09.528Z,12.60
2017-11-12T16:17:37.011Z,17.90
2017-11-12T16:20:04.694Z,10.53
2017-11-12T16:22:32.186Z,11.03
2017-11-12T16:24:59.733Z,16.53
2017-11-12T16:27:27.268Z,16.97
2017-11-12T16:29:54.909Z,13.17
2017-11-12T16:32:22.590Z,19.47
2017-11-12T16:34:50.077Z,16.07
2017-11-12T16:37:17.565Z,16.13
2017-11-12T16:39:45.090Z,14.47
2017-11-12T16:42:12.563Z,14.33
2017-11-12T16:44:40.945Z,13.93
2017-11-12T16:47:08.456Z,18.87
2017-11-12T16:49:35.954Z,11.80
2017-11-12T16:52:03.446Z,17.23
2017-11-12T16:54:30.978Z,18.97
2017-11-12T16:56:58.497Z,14.03
2017-11-12T16:59:26.744Z,15.20
2017-11-12T17:01:54.446Z,11.87
2017-11-12T17:04:22.015Z,15.00
2017-11-12T17:06:49.588Z,21.40
2017-11-12T17:09:17.753Z,13.63
2017-11-12T17:11:46.081Z,15.70
2017-11-12T17:14:13.559Z,29.17
2017-11-12T17:16:41.848Z,14.10
2017-11-12T17:19:09.361Z,17.50
2017-11-12T17:21:36.854Z,17.63
2017-11-12T17:24:05.097Z,23.00
2017-11-12T17:26:32.706Z,18.30
2017-11-12T17:29:00.182Z,18.17
2017-11-12T17:31:27.737Z,16.13
2017-11-12T17:33:55.230Z,16.43
2017-11-12T17:36:22.935Z,12.40
2017-11-12T17:38:51.319Z,15.77
2017-11-12T17:41:18.884Z,24.00
2017-11-12T17:43:46.472Z,12.40
2017-11-12T17:46:13.970Z,16.90
2017-11-12T17:48:41.563Z,15.63
2017-11-12T17:51:09.140Z,14.77
2017-11-12T17:53:36.643Z,24.43
2017-11-12T17:56:04.124Z,17.00
2017-11-12T17:58:32.501Z,13.03
2017-11-12T18:00:59.976Z,20.70
2017-11-12T18:03:27.491Z,17.63
2017-11-12T18:05:55.852Z,22.07
2017-11-12T18:08:23.476Z,12.57
2017-11-12T18:10:50.968Z,20.87
2017-11-12T18:13:18.572Z,13.50
2017-11-12T18:15:46.120Z,16.67
2017-11-12T18:18:13.632Z,13.23
2017-11-12T18:20:41.309Z,15.23
2017-11-12T18:23:08.794Z,18.63
2017-11-12T18:25:36.300Z,16.23
2017-11-12T18:28:03.805Z,18.73
2017-11-12T18:30:31.341Z,19.60
2017-11-12T18:32:58.853Z,20.60
2017-11-12T18:35:27.154Z,18.60
2017-11-12T18:37:54.705Z,15.40
2017-11-12T18:40:22.247Z,21.17
2017-11-12T18:42:50.496Z,23.30
2017-11-12T18:45:18.016Z,17.53
2017-11-12T18:47:45.782Z,16.33
2017-11-12T18:50:13.307Z,24.83
2017-11-12T18:52:40.795Z,18.67
2017-11-12T18:55:28.016Z,13.40
2017-11-12T18:58:05.387Z,15.00
2017-11-12T19:00:38.678Z,15.97
2017-11-12T19:06:12.642Z,18.03
2017-11-12T19:08:40.685Z,16.13
2017-11-12T19:11:08.976Z,13.70
2017-11-12T19:13:36.470Z,26.97
2017-11-12T19:16:04.011Z,21.37
2017-11-12T19:18:35.089Z,22.40
2017-11-12T19:21:04.522Z,22.90
2017-11-12T19:23:34.185Z,15.47
2017-11-12T19:29:09.241Z,22.10
2017-11-12T19:31:36.734Z,19.13
2017-11-12T19:34:05.301Z,14.67
2017-11-12T19:36:32.821Z,19.13
2017-11-12T19:39:00.383Z,18.20
2017-11-12T19:41:27.884Z,16.07
2017-11-12T19:43:55.502Z,15.23
2017-11-12T19:49:14.411Z,23.60
2017-11-12T19:51:41.925Z,14.70
2017-11-12T19:54:09.424Z,19.63
2017-11-12T19:56:37.061Z,19.83
2017-11-12T19:59:04.615Z,19.07
2017-11-12T20:01:32.826Z,20.47
2017-11-12T20:04:00.364Z,17.53
2017-11-12T20:06:27.864Z,18.33
2017-11-12T20:08:55.556Z,17.77
2017-11-12T20:11:23.815Z,21.30
2017-11-12T20:13:52.138Z,21.00
2017-11-12T20:16:20.958Z,17.20
2017-11-12T20:18:48.510Z,21.53
2017-11-12T20:21:17.864Z,20.40
2017-11-12T20:23:45.366Z,29.07
2017-11-12T20:26:12.939Z,26.90
2017-11-12T20:28:40.641Z,25.13
2017-11-12T20:31:08.934Z,19.50
2017-11-12T20:33:36.552Z,20.80
2017-11-12T20:36:04.335Z,21.73
2017-11-12T20:38:31.826Z,18.97
2017-11-12T20:40:59.405Z,23.03
2017-11-12T20:43:27.051Z,17.33
2017-11-12T20:45:56.277Z,21.00
2017-11-12T20:48:23.757Z,18.57
2017-11-12T20:53:52.778Z,15.23
2017-11-12T20:56:20.332Z,23.07
2017-11-12T20:58:48.759Z,25.00
2017-11-12T21:01:16.257Z,31.90
2017-11-12T21:03:44.322Z,25.90
2017-11-12T21:06:18.238Z,19.00
2017-11-12T21:08:45.751Z,20.70
2017-11-12T21:11:13.269Z,19.50
2017-11-12T21:13:41.540Z,24.27
2017-11-12T21:16:09.058Z,22.90
2017-11-12T21:18:36.529Z,21.00
2017-11-12T21:21:04.011Z,23.30
2017-11-12T21:23:32.271Z,25.27
2017-11-12T21:25:59.756Z,26.43
2017-11-12T21:28:34.387Z,17.47
2017-11-12T21:31:02.674Z,22.10
2017-11-12T21:33:32.819Z,19.33
2017-11-12T21:36:06.796Z,17.33
2017-11-12T21:38:35.447Z,21.10
2017-11-12T21:41:02.929Z,17.60
2017-11-12T21:43:31.865Z,18.73
2017-11-12T21:45:59.492Z,20.67
2017-11-12T21:48:26.992Z,18.17
2017-11-12T21:50:54.502Z,14.17
2017-11-12T21:53:22.031Z,19.90
2017-11-12T21:55:49.522Z,12.80
2017-11-12T21:58:17.024Z,24.40
2017-11-12T22:00:44.654Z,27.20
2017-11-12T22:03:12.206Z,22.83
2017-11-12T22:05:40.601Z,24.63
2017-11-12T22:08:08.086Z,21.47
2017-11-12T22:10:35.658Z,19.07
2017-11-12T22:13:04.210Z,18.77
2017-11-12T22:15:31.967Z,22.83
2017-11-12T22:18:00.431Z,18.47
2017-11-12T22:20:28.105Z,16.27
2017-11-12T22:22:55.732Z,23.53
2017-11-12T22:25:24.686Z,24.70
2017-11-12T22:27:52.639Z,21.70
2017-11-12T22:30:20.174Z,21.80
2017-11-12T22:32:47.649Z,27.47
2017-11-12T22:35:16.667Z,25.37
2017-11-12T22:37:44.758Z,26.80
2017-11-12T22:40:12.361Z,23.53
2017-11-12T22:42:40.609Z,22.07
2017-11-12T22:45:09.275Z,22.50
2017-11-12T22:47:36.885Z,24.30
2017-11-12T22:50:04.459Z,18.80
2017-11-12T22:52:32.714Z,23.07
2017-11-12T22:55:00.326Z,26.77
2017-11-12T22:57:27.818Z,30.30
2017-11-12T22:59:55.310Z,38.87
2017-11-12T23:02:23.617Z,32.47
2017-11-12T23:04:51.109Z,25.90
2017-11-12T23:07:18.980Z,37.20
2017-11-12T23:09:46.561Z,25.60
2017-11-12T23:12:14.074Z,34.83
2017-11-12T23:14:41.580Z,35.33
2017-11-12T23:17:09.871Z,31.30
2017-11-12T23:19:37.366Z,43.27
2017-11-12T23:22:04.868Z,32.13
2017-11-12T23:24:32.368Z,32.63
2017-11-12T23:27:00.010Z,31.80
2017-11-12T23:29:27.533Z,33.33
2017-11-12T23:31:55.030Z,34.97
2017-11-12T23:34:23.406Z,31.77
2017-11-12T23:36:50.938Z,31.63
2017-11-12T23:39:18.560Z,29.47
2017-11-12T23:41:46.111Z,22.13
2017-11-12T23:44:13.657Z,28.60
2017-11-12T23:46:41.151Z,30.73
2017-11-12T23:49:08.655Z,30.13
2017-11-12T23:51:36.332Z,32.87
2017-11-12T23:54:03.841Z,28.07
2017-11-12T23:56:31.339Z,30.93
2017-11-12T23:58:59.622Z,30.90
